Time;durP1;ratioP1;P1;durP2;ratioP2;P2;SDS_P1;SDS_P2;PMS_P1;PMS_P2;Temp;Humidity;BMP_temperature;BMP_pressure;BME280_temperature;BME280_humidity;BME280_pressure;Samples;Min_cycle;Max_cycle;Signal;HPM_P1;HPM_P2
2022/07/01 00:02:15;;;;;;;5.65;3.05;;;26.10;72.50;;;;;;4945606;28;20225;-72
2022/07/01 00:04:46;;;;;;;6.30;3.47;;;26.00;72.50;;;;;;4950866;28;20196;-73
2022/07/01 00:07:16;;;;;;;4.97;3.40;;;26.00;73.10;;;;;;4959318;28;21028;-73
2022/07/01 00:09:44;;;;;;;8.85;3.55;;;26.00;73.30;;;;;;4955870;28;20283;-72
2022/07/01 00:12:14;;;;;;;8.73;3.28;;;25.90;73.40;;;;;;4959027;28;20564;-72
2022/07/01 00:14:43;;;;;;;5.93;3.15;;;25.90;73.00;;;;;;4957315;28;20224;-72
2022/07/01 00:17:11;;;;;;;6.43;4.03;;;25.90;73.40;;;;;;4954865;28;20285;-72
2022/07/01 00:19:39;;;;;;;4.40;2.70;;;25.90;73.80;;;;;;4962741;28;20229;-72
2022/07/01 00:22:08;;;;;;;6.93;3.25;;;25.80;73.80;;;;;;4962592;28;20249;-72
2022/07/01 00:24:37;;;;;;;7.75;3.25;;;25.80;74.10;;;;;;4956497;28;20348;-73
2022/07/01 00:27:05;;;;;;;6.43;3.10;;;25.80;74.40;;;;;;4962995;28;20217;-72
2022/07/01 00:29:35;;;;;;;6.43;3.30;;;25.80;75.60;;;;;;4954605;28;20225;-72
2022/07/01 00:32:05;;;;;;;5.85;3.42;;;25.80;75.00;;;;;;4954744;28;20706;-72
2022/07/01 00:34:33;;;;;;;7.88;3.80;;;25.70;75.40;;;;;;4960310;28;20762;-72
2022/07/01 00:37:02;;;;;;;7.07;3.47;;;25.70;75.30;;;;;;4961656;28;20727;-72
2022/07/01 00:39:31;;;;;;;6.97;3.50;;;25.70;75.30;;;;;;4951863;28;20194;-74
2022/07/01 00:42:01;;;;;;;7.07;3.47;;;25.70;75.60;;;;;;4950748;28;20197;-73
2022/07/01 00:44:29;;;;;;;6.63;3.60;;;25.60;75.50;;;;;;4957782;28;20198;-72
2022/07/01 00:47:02;;;;;;;5.30;3.05;;;25.70;75.50;;;;;;4955393;28;20218;-72
2022/07/01 00:49:31;;;;;;;8.02;4.28;;;25.70;75.30;;;;;;4954047;28;20189;-73
2022/07/01 00:52:00;;;;;;;7.53;3.58;;;25.60;75.60;;;;;;4958738;28;20849;-72
2022/07/01 00:54:29;;;;;;;7.25;3.92;;;25.60;75.50;;;;;;4959813;28;20197;-73
2022/07/01 00:56:58;;;;;;;5.18;3.20;;;25.60;75.40;;;;;;4958218;28;20198;-73
2022/07/01 00:59:26;;;;;;;7.00;3.35;;;25.60;75.50;;;;;;4955864;28;20205;-73
2022/07/01 01:01:54;;;;;;;9.68;4.10;;;25.60;75.80;;;;;;4961020;28;20206;-73
2022/07/01 01:04:25;;;;;;;5.25;3.42;;;25.60;75.70;;;;;;4953508;28;20610;-73
2022/07/01 01:06:53;;;;;;;5.88;3.80;;;25.60;76.00;;;;;;4958960;28;20213;-73
2022/07/01 01:09:21;;;;;;;5.88;4.00;;;25.60;76.40;;;;;;4957904;28;20197;-73
2022/07/01 01:11:50;;;;;;;8.77;3.85;;;25.60;76.00;;;;;;4957648;28;20206;-73
2022/07/01 01:14:18;;;;;;;5.78;3.75;;;25.60;75.80;;;;;;4956705;28;20206;-73
2022/07/01 01:16:46;;;;;;;8.93;3.78;;;25.60;76.30;;;;;;4956937;28;20194;-71
2022/07/01 01:19:15;;;;;;;7.22;4.05;;;25.60;76.40;;;;;;4956004;28;20198;-72
2022/07/01 01:21:45;;;;;;;6.10;3.67;;;25.60;76.10;;;;;;4924473;29;20202;-71
2022/07/01 01:24:13;;;;;;;5.38;3.80;;;25.60;76.30;;;;;;4923303;29;20598;-72
2022/07/01 01:26:41;;;;;;;7.72;3.90;;;25.60;76.50;;;;;;4920609;29;20999;-71
2022/07/01 01:29:10;;;;;;;12.57;4.47;;;25.60;76.30;;;;;;4924467;29;20222;-71
2022/07/01 01:31:38;;;;;;;8.52;4.07;;;25.60;76.70;;;;;;4913949;29;20210;-73
2022/07/01 01:34:06;;;;;;;9.15;3.88;;;25.60;76.70;;;;;;4921588;29;20195;-71
2022/07/01 01:36:35;;;;;;;5.40;4.00;;;25.60;76.50;;;;;;4923452;29;20904;-71
2022/07/01 01:39:08;;;;;;;5.13;3.67;;;25.60;76.50;;;;;;4922585;29;20238;-71
2022/07/01 01:41:36;;;;;;;9.52;4.22;;;25.60;76.50;;;;;;4922737;29;20211;-72
2022/07/01 01:44:05;;;;;;;7.22;4.13;;;25.60;76.70;;;;;;4925067;29;20210;-71
2022/07/01 01:46:34;;;;;;;7.90;3.97;;;25.60;77.60;;;;;;4926199;29;20883;-72
2022/07/01 01:49:03;;;;;;;6.47;4.30;;;25.60;77.10;;;;;;4922440;29;20202;-73
2022/07/01 01:51:32;;;;;;;10.55;5.65;;;25.60;77.50;;;;;;4922949;29;20811;-72
2022/07/01 01:54:01;;;;;;;7.80;4.57;;;25.60;77.60;;;;;;4926435;29;20642;-71
2022/07/01 01:56:31;;;;;;;8.30;4.03;;;25.60;77.60;;;;;;4928002;29;20195;-74
2022/07/01 01:58:59;;;;;;;7.28;4.07;;;25.60;77.60;;;;;;4921086;29;20210;-72
2022/07/01 02:01:28;;;;;;;10.15;4.13;;;25.60;77.40;;;;;;4924934;29;20499;-72
2022/07/01 02:03:56;;;;;;;12.10;4.85;;;25.60;77.50;;;;;;4926215;29;20763;-72
2022/07/01 02:06:25;;;;;;;5.85;4.07;;;25.60;77.90;;;;;;4926831;29;20199;-71
2022/07/01 02:08:53;;;;;;;8.38;4.47;;;25.60;78.40;;;;;;4922902;29;20226;-72
2022/07/01 02:11:22;;;;;;;7.95;4.68;;;25.50;78.30;;;;;;4927211;29;20210;-71
2022/07/01 02:13:51;;;;;;;9.45;4.45;;;25.50;78.10;;;;;;4925130;29;20195;-72
2022/07/01 02:16:20;;;;;;;10.18;4.70;;;25.50;78.00;;;;;;4925694;29;20206;-72
2022/07/01 02:18:48;;;;;;;9.00;4.32;;;25.50;78.30;;;;;;4922319;29;20210;-72
2022/07/01 02:21:17;;;;;;;12.48;4.40;;;25.50;78.10;;;;;;4952411;28;20230;-73
2022/07/01 02:23:45;;;;;;;9.73;4.78;;;25.50;78.00;;;;;;4959954;28;20189;-72
2022/07/01 02:26:13;;;;;;;8.77;4.88;;;25.50;77.90;;;;;;4961642;28;20575;-72
2022/07/01 02:28:42;;;;;;;8.35;4.72;;;25.50;77.80;;;;;;4957645;28;20214;-72
2022/07/01 02:31:11;;;;;;;7.53;4.75;;;25.50;77.80;;;;;;4959884;28;20201;-74
2022/07/01 02:33:40;;;;;;;7.43;4.28;;;25.50;77.80;;;;;;4964397;28;20216;-73
2022/07/01 02:36:09;;;;;;;10.30;4.68;;;25.50;77.80;;;;;;4960004;28;20198;-74
2022/07/01 02:38:37;;;;;;;7.50;4.65;;;25.50;78.00;;;;;;4961042;28;20194;-74
2022/07/01 02:41:05;;;;;;;8.07;4.38;;;25.50;77.90;;;;;;4962313;28;20197;-73
2022/07/01 02:43:34;;;;;;;12.48;4.72;;;25.50;78.10;;;;;;4962592;28;20194;-74
2022/07/01 02:46:02;;;;;;;11.93;4.97;;;25.50;78.30;;;;;;4956834;28;20700;-74
2022/07/01 02:48:32;;;;;;;7.63;4.90;;;25.50;78.10;;;;;;4959867;28;20355;-74
2022/07/01 02:51:00;;;;;;;6.18;4.35;;;25.40;78.30;;;;;;4950639;28;20195;-73
2022/07/01 02:53:29;;;;;;;9.27;4.65;;;25.40;78.50;;;;;;4961198;28;20198;-73
2022/07/01 02:55:57;;;;;;;7.28;5.28;;;25.40;78.40;;;;;;4959511;28;20708;-74
2022/07/01 02:58:26;;;;;;;7.80;4.78;;;25.40;78.40;;;;;;4958083;28;20202;-74
2022/07/01 03:00:54;;;;;;;10.70;4.97;;;25.40;78.50;;;;;;4963842;28;20194;-73
2022/07/01 03:03:23;;;;;;;8.43;5.47;;;25.40;78.70;;;;;;4964071;28;20193;-74
2022/07/01 03:05:52;;;;;;;7.72;4.82;;;25.40;78.80;;;;;;4956625;28;20206;-73
2022/07/01 03:08:21;;;;;;;8.95;4.63;;;25.40;78.80;;;;;;4959991;28;20700;-73
2022/07/01 03:10:49;;;;;;;9.13;5.03;;;25.40;79.20;;;;;;4951787;28;20198;-73
2022/07/01 03:13:19;;;;;;;8.38;5.40;;;25.30;79.40;;;;;;4958783;28;20190;-74
2022/07/01 03:15:47;;;;;;;8.30;5.05;;;25.30;79.70;;;;;;4958189;28;20200;-73
2022/07/01 03:18:16;;;;;;;9.85;5.00;;;25.30;80.10;;;;;;4961568;28;20688;-73
2022/07/01 03:20:44;;;;;;;9.90;5.47;;;25.30;80.40;;;;;;4961037;28;20226;-74
2022/07/01 03:23:14;;;;;;;12.15;5.50;;;25.20;80.70;;;;;;4962126;28;20205;-73
2022/07/01 03:25:42;;;;;;;10.13;6.30;;;25.20;80.80;;;;;;4958522;28;20212;-73
2022/07/01 03:28:10;;;;;;;12.93;6.20;;;25.20;80.60;;;;;;4953356;28;20714;-73
2022/07/01 03:30:39;;;;;;;14.25;6.10;;;25.20;80.80;;;;;;4958448;28;20657;-73
2022/07/01 03:33:07;;;;;;;7.65;5.32;;;25.20;80.80;;;;;;4967125;28;20644;-73
2022/07/01 03:35:40;;;;;;;9.90;5.35;;;25.20;81.20;;;;;;4965559;28;20198;-73
2022/07/01 03:38:09;;;;;;;11.00;5.80;;;25.20;81.50;;;;;;4953030;28;20189;-73
2022/07/01 03:40:39;;;;;;;12.13;5.55;;;25.20;81.80;;;;;;4953093;28;20198;-74
2022/07/01 03:43:07;;;;;;;9.05;5.85;;;25.20;82.10;;;;;;4961799;28;20193;-73
2022/07/01 03:45:36;;;;;;;11.45;6.15;;;25.20;82.40;;;;;;4956473;28;20217;-73
2022/07/01 03:48:05;;;;;;;13.18;6.03;;;25.20;82.50;;;;;;4950861;28;20687;-73
2022/07/01 03:50:33;;;;;;;8.68;5.72;;;25.20;82.60;;;;;;4959206;28;20194;-73
2022/07/01 03:55:48;;;;;;;9.15;5.55;;;25.20;82.80;;;;;;4954681;28;21453;-73
2022/07/01 03:58:17;;;;;;;9.65;5.57;;;25.20;82.50;;;;;;4957171;28;20197;-73
2022/07/01 04:00:45;;;;;;;14.48;5.70;;;25.20;82.80;;;;;;4952396;28;20225;-73
2022/07/01 04:03:14;;;;;;;10.07;5.75;;;25.20;83.10;;;;;;4955143;28;20715;-74
2022/07/01 04:05:42;;;;;;;9.38;5.75;;;25.20;83.40;;;;;;4956242;28;20198;-73
2022/07/01 04:08:11;;;;;;;10.38;5.45;;;25.20;83.20;;;;;;4961667;28;20244;-74
2022/07/01 04:10:41;;;;;;;9.75;5.80;;;25.20;83.40;;;;;;4964067;28;20292;-73
2022/07/01 04:13:11;;;;;;;7.95;6.25;;;25.30;83.40;;;;;;4961785;28;20824;-73
2022/07/01 04:15:58;;;;;;;8.55;5.72;;;25.30;83.50;;;;;;4962197;28;20276;-73
2022/07/01 04:18:27;;;;;;;11.93;6.32;;;25.30;83.20;;;;;;4961836;28;21122;-73
2022/07/01 04:23:41;;;;;;;13.68;6.78;;;25.30;83.50;;;;;;4960190;28;20194;-73
2022/07/01 04:26:09;;;;;;;12.52;6.00;;;25.30;83.60;;;;;;4962632;28;20232;-74
2022/07/01 04:28:59;;;;;;;10.20;5.78;;;25.30;83.30;;;;;;4960445;28;20271;-74
2022/07/01 04:31:27;;;;;;;10.63;6.05;;;25.30;83.20;;;;;;4958656;28;20274;-74
2022/07/01 04:33:56;;;;;;;8.90;5.72;;;25.40;83.30;;;;;;4963276;28;20533;-73
2022/07/01 04:36:24;;;;;;;9.50;5.97;;;25.40;83.90;;;;;;4961854;28;20193;-73
2022/07/01 04:38:53;;;;;;;8.18;5.63;;;25.40;83.90;;;;;;4963206;28;20193;-73
2022/07/01 04:44:09;;;;;;;11.15;5.88;;;25.40;83.80;;;;;;4961088;28;20853;-73
2022/07/01 04:46:38;;;;;;;8.60;5.78;;;25.50;83.60;;;;;;4963219;28;20212;-74
2022/07/01 04:49:06;;;;;;;9.35;5.93;;;25.50;83.40;;;;;;4962098;28;20853;-73
2022/07/01 04:51:35;;;;;;;10.63;6.13;;;25.50;83.30;;;;;;4961517;28;21581;-73
2022/07/01 04:54:04;;;;;;;10.43;6.07;;;25.50;83.40;;;;;;4960046;28;20205;-73
2022/07/01 04:56:33;;;;;;;16.00;5.85;;;25.60;83.30;;;;;;4961172;28;20201;-73
2022/07/01 04:59:03;;;;;;;10.75;5.30;;;25.60;83.30;;;;;;4966704;28;20198;-73
2022/07/01 05:01:33;;;;;;;8.95;5.47;;;25.60;83.40;;;;;;4962771;28;20707;-73
2022/07/01 05:04:01;;;;;;;9.18;5.38;;;25.60;83.30;;;;;;4957303;28;20205;-73
2022/07/01 05:06:30;;;;;;;10.48;5.47;;;25.70;83.20;;;;;;4961261;28;20907;-73
2022/07/01 05:08:58;;;;;;;12.85;5.57;;;25.70;82.90;;;;;;4962822;28;20225;-74
2022/07/01 05:11:27;;;;;;;12.38;6.22;;;25.80;83.00;;;;;;4959922;28;20209;-74
2022/07/01 05:13:55;;;;;;;9.27;6.55;;;25.80;82.80;;;;;;4962062;28;20198;-74
2022/07/01 05:16:23;;;;;;;10.85;6.03;;;25.80;83.60;;;;;;4962361;28;20685;-74
2022/07/01 05:21:57;;;;;;;9.52;5.53;;;25.90;82.50;;;;;;4961169;28;20221;-74
2022/07/01 05:24:30;;;;;;;9.93;5.63;;;25.90;82.30;;;;;;4958580;28;20714;-74
2022/07/01 05:27:00;;;;;;;11.38;5.45;;;25.90;82.20;;;;;;4956633;28;20202;-77
2022/07/01 05:29:28;;;;;;;10.98;5.93;;;26.00;82.20;;;;;;4963970;28;20221;-75
2022/07/01 05:31:57;;;;;;;9.73;5.10;;;26.00;82.00;;;;;;4964836;28;20206;-76
2022/07/01 05:34:26;;;;;;;7.28;5.07;;;26.10;82.10;;;;;;4958665;28;20218;-75
2022/07/01 05:36:55;;;;;;;9.82;5.25;;;26.10;82.00;;;;;;4961012;28;20273;-75
2022/07/01 05:39:23;;;;;;;11.68;5.88;;;26.20;81.40;;;;;;4965488;28;20201;-77
2022/07/01 05:41:52;;;;;;;9.48;5.70;;;26.20;81.10;;;;;;4962571;28;20193;-78
2022/07/01 05:44:21;;;;;;;9.05;5.57;;;26.30;80.90;;;;;;4960709;28;20752;-76
2022/07/01 05:46:49;;;;;;;8.15;4.43;;;26.30;80.80;;;;;;4963006;28;20201;-76
2022/07/01 05:49:18;;;;;;;10.05;5.03;;;26.30;80.70;;;;;;4965729;28;20895;-76
2022/07/01 05:51:48;;;;;;;10.95;4.35;;;26.40;80.70;;;;;;4949190;28;20668;-75
2022/07/01 05:54:16;;;;;;;8.13;4.60;;;26.40;80.20;;;;;;4965884;28;20228;-77
2022/07/01 05:56:44;;;;;;;13.13;4.50;;;26.50;80.90;;;;;;4963854;28;20599;-76
2022/07/01 05:59:14;;;;;;;7.95;4.80;;;26.60;79.90;;;;;;4966382;28;20194;-76
2022/07/01 06:01:42;;;;;;;13.55;5.55;;;26.60;79.60;;;;;;4966504;28;20301;-76
2022/07/01 06:04:11;;;;;;;7.05;4.57;;;26.70;79.40;;;;;;4965593;28;20202;-76
2022/07/01 06:06:39;;;;;;;8.57;4.40;;;26.70;79.20;;;;;;4959986;28;20197;-75
2022/07/01 06:09:09;;;;;;;8.57;4.57;;;26.80;79.10;;;;;;4962285;28;20189;-76
2022/07/01 06:11:37;;;;;;;9.88;4.05;;;26.80;78.90;;;;;;4966564;28;20201;-76
2022/07/01 06:14:08;;;;;;;9.27;4.35;;;26.90;78.80;;;;;;4966807;28;20201;-78
2022/07/01 06:16:36;;;;;;;7.80;4.47;;;27.00;78.70;;;;;;4960550;28;20209;-75
2022/07/01 06:19:06;;;;;;;8.43;4.85;;;27.00;78.20;;;;;;4966092;28;20245;-77
2022/07/01 06:21:34;;;;;;;8.07;4.50;;;27.10;78.20;;;;;;4968207;28;20217;-76
2022/07/01 06:24:02;;;;;;;7.10;4.10;;;27.20;78.30;;;;;;4966135;28;20677;-76
2022/07/01 06:26:32;;;;;;;7.45;3.95;;;27.30;78.10;;;;;;4961017;28;20590;-76
2022/07/01 06:29:00;;;;;;;6.70;3.83;;;27.40;77.50;;;;;;4961309;28;20198;-75
2022/07/01 06:31:29;;;;;;;5.78;3.65;;;27.50;77.50;;;;;;4965147;28;20229;-75
2022/07/01 06:33:57;;;;;;;5.63;4.00;;;27.60;77.00;;;;;;4967441;28;20653;-76
2022/07/01 06:36:25;;;;;;;6.40;3.60;;;27.70;76.80;;;;;;4966378;28;20233;-77
2022/07/01 06:38:54;;;;;;;10.35;4.18;;;27.80;76.60;;;;;;4965052;28;20205;-77
2022/07/01 06:41:28;;;;;;;6.00;3.97;;;27.80;76.40;;;;;;4962948;28;20206;-78
2022/07/01 06:43:59;;;;;;;7.00;3.72;;;27.90;76.30;;;;;;4965105;28;20747;-76
2022/07/01 06:46:27;;;;;;;7.00;4.30;;;28.00;76.10;;;;;;4967479;28;20198;-76
2022/07/01 06:48:57;;;;;;;6.45;4.35;;;28.10;75.60;;;;;;4963179;28;20444;-76
2022/07/01 06:51:27;;;;;;;8.60;3.83;;;28.10;74.20;;;;;;4961238;28;20206;-76
2022/07/01 06:53:56;;;;;;;5.75;4.10;;;28.20;74.20;;;;;;4964627;28;20292;-75
2022/07/01 06:56:24;;;;;;;6.40;4.03;;;28.30;74.10;;;;;;4965196;28;20207;-76
2022/07/01 06:58:53;;;;;;;6.57;3.97;;;28.40;74.20;;;;;;4963333;28;20206;-75
2022/07/01 07:01:23;;;;;;;6.15;4.05;;;28.40;74.00;;;;;;4965290;28;20213;-75
2022/07/01 07:03:51;;;;;;;8.10;4.18;;;28.50;73.20;;;;;;4967605;28;20198;-76
2022/07/01 07:06:19;;;;;;;7.10;3.70;;;28.50;73.40;;;;;;4961698;28;20285;-76
2022/07/01 07:08:48;;;;;;;10.60;4.35;;;28.50;73.40;;;;;;4961360;28;20194;-74
2022/07/01 07:11:19;;;;;;;6.70;4.22;;;28.60;72.60;;;;;;4959401;28;20220;-76
2022/07/01 07:13:47;;;;;;;5.75;3.90;;;28.60;72.50;;;;;;4958059;28;20202;-76
2022/07/01 07:16:20;;;;;;;9.77;4.18;;;28.70;72.60;;;;;;4967015;28;20201;-76
2022/07/01 07:18:51;;;;;;;7.72;3.78;;;28.80;72.50;;;;;;4964786;28;20201;-77
2022/07/01 07:21:19;;;;;;;5.97;3.30;;;28.90;72.50;;;;;;4962529;28;20342;-76
2022/07/01 07:23:48;;;;;;;8.05;4.10;;;28.90;72.10;;;;;;4961010;28;20566;-76
2022/07/01 07:26:16;;;;;;;5.28;3.15;;;29.00;71.60;;;;;;4965649;28;20205;-76
2022/07/01 07:28:45;;;;;;;5.22;3.33;;;29.10;71.60;;;;;;4965670;28;20197;-76
2022/07/01 07:31:13;;;;;;;9.32;3.95;;;29.20;71.40;;;;;;4967124;28;20572;-77
2022/07/01 07:33:42;;;;;;;5.68;3.75;;;29.20;70.20;;;;;;4963189;28;20200;-77
2022/07/01 07:36:11;;;;;;;7.70;3.58;;;29.20;69.90;;;;;;4965806;28;20202;-77
2022/07/01 07:38:40;;;;;;;10.10;4.63;;;29.30;69.70;;;;;;4964786;28;20202;-77
2022/07/01 07:41:08;;;;;;;7.65;4.00;;;29.30;70.50;;;;;;4961313;28;20198;-75
2022/07/01 07:43:37;;;;;;;7.00;4.00;;;29.40;69.50;;;;;;4962364;28;20205;-74
2022/07/01 07:46:05;;;;;;;8.55;3.95;;;29.40;69.30;;;;;;4954689;28;20759;-75
2022/07/01 07:48:34;;;;;;;7.30;3.83;;;29.50;69.40;;;;;;4961410;28;20742;-73
2022/07/01 07:51:02;;;;;;;5.28;3.70;;;29.50;68.80;;;;;;4962599;28;20222;-75
2022/07/01 07:53:32;;;;;;;7.28;4.32;;;29.60;68.80;;;;;;4962809;28;20194;-76
2022/07/01 07:56:00;;;;;;;9.73;4.70;;;29.70;68.40;;;;;;4959113;28;20445;-75
2022/07/01 07:58:29;;;;;;;7.00;4.20;;;29.70;68.00;;;;;;4957460;28;20440;-75
2022/07/01 08:00:57;;;;;;;6.70;3.90;;;29.80;68.40;;;;;;4967541;28;20194;-73
2022/07/01 08:03:26;;;;;;;6.22;3.65;;;29.80;68.40;;;;;;4962445;28;20297;-74
2022/07/01 08:05:55;;;;;;;6.45;4.03;;;29.90;68.60;;;;;;4962270;28;20703;-74
2022/07/01 08:08:23;;;;;;;5.10;3.58;;;30.00;68.60;;;;;;4963680;28;20197;-75
2022/07/01 08:10:53;;;;;;;6.85;3.95;;;30.00;68.20;;;;;;4953301;28;20236;-75
2022/07/01 08:13:21;;;;;;;8.07;3.95;;;30.10;67.90;;;;;;4962700;28;20205;-75
2022/07/01 08:15:50;;;;;;;7.00;3.97;;;30.20;67.70;;;;;;4962064;28;20189;-75
2022/07/01 08:18:18;;;;;;;9.00;4.35;;;30.20;66.90;;;;;;4963306;28;20670;-75
2022/07/01 08:20:46;;;;;;;8.52;3.67;;;30.30;66.40;;;;;;4962418;28;20225;-75
2022/07/01 08:23:15;;;;;;;5.20;3.70;;;30.30;66.50;;;;;;4963379;28;20224;-74
2022/07/01 08:25:43;;;;;;;6.60;3.58;;;30.40;66.00;;;;;;4962091;28;20202;-74
2022/07/01 08:28:13;;;;;;;5.75;3.38;;;30.40;65.50;;;;;;4959536;28;20194;-74
2022/07/01 08:30:41;;;;;;;7.07;3.75;;;30.50;65.40;;;;;;4957913;28;20236;-74
2022/07/01 08:33:10;;;;;;;8.07;3.50;;;30.50;65.20;;;;;;4951306;28;20707;-74
2022/07/01 08:35:39;;;;;;;7.22;3.33;;;30.50;63.60;;;;;;4961733;28;20201;-75
2022/07/01 08:38:07;;;;;;;7.35;3.30;;;30.60;62.90;;;;;;4963553;28;20280;-75
2022/07/01 08:40:36;;;;;;;9.18;4.05;;;30.70;63.60;;;;;;4964267;28;20200;-75
2022/07/01 08:43:07;;;;;;;6.30;3.45;;;30.70;63.60;;;;;;4962750;28;20916;-75
2022/07/01 08:45:37;;;;;;;5.57;3.42;;;30.80;62.90;;;;;;4964437;28;20201;-75
2022/07/01 08:48:09;;;;;;;5.47;3.38;;;30.90;63.40;;;;;;4959830;28;20228;-77
2022/07/01 08:50:39;;;;;;;9.07;3.53;;;30.90;62.90;;;;;;4963301;28;20620;-75
2022/07/01 08:53:09;;;;;;;5.85;3.83;;;31.00;62.70;;;;;;4959554;28;20205;-75
2022/07/01 08:58:21;;;;;;;5.05;2.92;;;31.10;62.50;;;;;;4960406;28;20598;-76
2022/07/01 09:00:51;;;;;;;4.57;2.78;;;31.20;61.60;;;;;;4970365;28;20202;-74
2022/07/01 09:03:24;;;;;;;5.60;3.63;;;31.20;61.40;;;;;;4967791;28;20252;-75
2022/07/01 09:05:54;;;;;;;9.98;3.33;;;31.30;61.40;;;;;;4965897;28;20285;-75
2022/07/01 09:08:29;;;;;;;5.53;3.08;;;31.40;61.30;;;;;;4965924;28;20288;-75
2022/07/01 09:10:57;;;;;;;10.50;3.08;;;31.40;61.30;;;;;;4966612;28;20208;-75
2022/07/01 09:13:25;;;;;;;7.40;3.47;;;31.50;61.20;;;;;;4967036;28;20201;-75
2022/07/01 09:15:57;;;;;;;6.13;3.10;;;31.50;60.80;;;;;;4963809;28;20663;-75
2022/07/01 09:18:26;;;;;;;7.10;3.30;;;31.60;60.80;;;;;;4964260;28;20213;-75
2022/07/01 09:20:54;;;;;;;11.82;3.20;;;31.60;60.20;;;;;;4956112;28;20224;-75
2022/07/01 09:23:25;;;;;;;6.22;2.90;;;31.70;59.80;;;;;;4957911;28;20194;-75
2022/07/01 09:25:54;;;;;;;4.97;3.25;;;31.70;60.20;;;;;;4966224;28;20239;-75
2022/07/01 09:28:26;;;;;;;9.05;3.10;;;31.80;59.90;;;;;;4964872;28;20284;-75
2022/07/01 09:30:59;;;;;;;5.07;3.13;;;31.90;59.90;;;;;;4956607;28;20190;-75
2022/07/01 09:33:29;;;;;;;7.15;3.13;;;32.00;60.10;;;;;;4959474;28;20425;-75
2022/07/01 09:35:59;;;;;;;4.57;2.75;;;32.00;60.00;;;;;;4967977;28;20308;-75
2022/07/01 09:38:27;;;;;;;8.13;3.53;;;32.10;59.40;;;;;;4961003;28;20193;-75
2022/07/01 09:41:02;;;;;;;4.28;2.90;;;32.10;59.50;;;;;;4961010;28;20742;-75
2022/07/01 09:43:33;;;;;;;5.38;3.10;;;32.20;58.80;;;;;;4968464;28;20189;-75
2022/07/01 09:46:07;;;;;;;6.43;3.20;;;32.20;58.40;;;;;;4967071;28;20233;-75
2022/07/01 09:48:53;;;;;;;6.65;2.95;;;32.30;58.60;;;;;;4961618;28;20193;-75
2022/07/01 09:51:21;;;;;;;4.85;3.13;;;32.40;58.70;;;;;;4963816;28;20213;-75
2022/07/01 09:53:50;;;;;;;5.70;3.30;;;32.50;58.50;;;;;;4965730;28;20260;-75
2022/07/01 09:56:19;;;;;;;6.07;2.97;;;32.50;58.20;;;;;;4967355;28;20209;-75
2022/07/01 09:58:48;;;;;;;6.65;3.58;;;32.50;58.10;;;;;;4962150;28;20209;-75
2022/07/01 10:01:18;;;;;;;7.78;3.75;;;32.60;57.80;;;;;;4965151;28;20197;-74
2022/07/01 10:03:47;;;;;;;5.15;3.42;;;32.70;57.80;;;;;;4966370;28;20209;-75
2022/07/01 10:06:38;;;;;;;5.75;2.80;;;32.70;57.70;;;;;;4965332;28;20205;-75
2022/07/01 10:09:27;;;;;;;7.05;3.03;;;32.80;57.80;;;;;;4964398;28;20197;-75
2022/07/01 10:12:26;;;;;;;7.07;3.30;;;32.90;57.70;;;;;;4968041;28;20410;-75
2022/07/01 10:14:56;;;;;;;5.63;2.75;;;33.00;57.30;;;;;;4964817;28;20194;-75
2022/07/01 10:17:30;;;;;;;5.10;2.78;;;33.10;57.20;;;;;;4958889;28;20225;-75
2022/07/01 10:20:07;;;;;;;8.18;2.63;;;33.10;56.90;;;;;;4964199;28;20944;-75
2022/07/01 10:22:37;;;;;;;7.90;3.25;;;33.10;56.50;;;;;;4966059;28;20209;-75
2022/07/01 10:25:35;;;;;;;7.70;2.95;;;33.20;56.60;;;;;;4967678;28;20212;-75
2022/07/01 10:28:27;;;;;;;4.65;3.05;;;33.30;56.00;;;;;;4962359;28;20233;-75
2022/07/01 10:31:01;;;;;;;8.88;2.92;;;33.30;56.30;;;;;;4960515;28;20221;-76
2022/07/01 10:33:39;;;;;;;5.18;2.97;;;33.30;54.80;;;;;;4965011;28;20216;-75
2022/07/01 10:36:10;;;;;;;4.28;2.83;;;33.40;55.20;;;;;;4959431;28;20217;-75
2022/07/01 10:39:10;;;;;;;4.35;2.90;;;33.40;55.50;;;;;;4964015;28;20194;-75
2022/07/01 10:41:40;;;;;;;5.82;2.75;;;33.50;55.60;;;;;;4965239;28;20244;-76
2022/07/01 10:44:11;;;;;;;5.10;3.05;;;33.60;55.50;;;;;;4966718;28;20193;-75
2022/07/01 10:46:46;;;;;;;4.03;2.90;;;33.60;55.30;;;;;;4966828;28;20243;-75
2022/07/01 10:49:18;;;;;;;6.15;2.53;;;33.70;54.20;;;;;;4962794;28;20194;-75
2022/07/01 10:51:48;;;;;;;6.35;2.67;;;33.80;54.00;;;;;;4965347;28;20210;-75
2022/07/01 10:54:53;;;;;;;6.03;3.20;;;33.80;53.70;;;;;;4965648;28;20621;-74
2022/07/01 10:57:29;;;;;;;6.07;2.55;;;33.90;53.50;;;;;;4967860;28;20206;-78
2022/07/01 11:00:34;;;;;;;12.57;3.08;;;33.90;53.40;;;;;;4966138;28;20194;-77
2022/07/01 11:03:17;;;;;;;4.63;2.55;;;34.00;53.40;;;;;;4961163;28;20212;-76
2022/07/01 11:05:50;;;;;;;6.93;3.45;;;34.00;52.90;;;;;;4964366;28;20236;-77
2022/07/01 11:08:18;;;;;;;5.25;2.90;;;34.00;53.30;;;;;;4963244;28;20197;-76
2022/07/01 11:10:58;;;;;;;9.48;3.83;;;34.10;53.20;;;;;;4962080;28;20222;-77
2022/07/01 11:13:28;;;;;;;8.05;3.53;;;34.10;53.00;;;;;;4970143;28;20209;-76
2022/07/01 11:15:57;;;;;;;12.10;3.03;;;34.20;53.30;;;;;;4964573;28;20209;-78
2022/07/01 11:18:26;;;;;;;5.75;3.10;;;34.30;53.20;;;;;;4961066;28;20211;-77
2022/07/01 11:21:06;;;;;;;6.50;3.10;;;34.30;52.90;;;;;;4961099;28;20300;-76
2022/07/01 11:23:34;;;;;;;4.97;2.90;;;34.30;52.70;;;;;;4959530;28;20210;-76
2022/07/01 11:26:08;;;;;;;4.55;3.00;;;34.40;52.10;;;;;;4964122;28;20197;-77
2022/07/01 11:28:41;;;;;;;4.13;2.42;;;34.40;52.20;;;;;;4965260;28;20683;-77
2022/07/01 11:31:10;;;;;;;4.53;2.88;;;34.50;52.00;;;;;;4960288;28;20297;-78
2022/07/01 11:33:40;;;;;;;5.80;2.75;;;34.60;52.50;;;;;;4964048;28;20216;-78
2022/07/01 11:41:43;;;;;;;7.07;3.10;;;34.70;51.70;;;;;;4961688;28;20190;-78
2022/07/01 11:44:11;;;;;;;4.38;2.80;;;34.70;51.50;;;;;;4960486;28;20689;-76
2022/07/01 11:46:40;;;;;;;4.75;2.95;;;34.80;51.80;;;;;;4960485;28;20197;-78
2022/07/01 11:49:13;;;;;;;5.82;3.00;;;34.80;50.90;;;;;;4961287;28;20193;-77
2022/07/01 11:51:43;;;;;;;6.05;2.83;;;34.80;51.20;;;;;;4959774;28;20185;-78
2022/07/01 11:54:22;;;;;;;5.05;2.70;;;34.90;51.10;;;;;;4962658;28;20252;-77
2022/07/01 11:56:51;;;;;;;7.03;2.67;;;34.90;50.60;;;;;;4959702;28;20232;-77
2022/07/01 11:59:20;;;;;;;5.10;2.70;;;35.00;50.20;;;;;;4964404;28;20190;-77
2022/07/01 12:01:54;;;;;;;6.75;3.10;;;35.00;49.90;;;;;;4960185;28;20309;-75
2022/07/01 12:04:22;;;;;;;3.15;2.40;;;35.10;50.10;;;;;;4961653;28;20272;-75
2022/07/01 12:06:53;;;;;;;4.05;2.75;;;35.10;49.70;;;;;;4960373;28;20222;-76
2022/07/01 12:09:21;;;;;;;4.45;2.60;;;35.20;49.80;;;;;;4961548;28;20188;-78
2022/07/01 12:11:51;;;;;;;5.38;2.63;;;35.30;50.00;;;;;;4963301;28;20198;-78
2022/07/01 12:14:21;;;;;;;7.75;2.65;;;35.30;50.10;;;;;;4963281;28;20213;-75
2022/07/01 12:16:52;;;;;;;8.10;3.15;;;35.30;50.10;;;;;;4958392;28;20193;-78
2022/07/01 12:19:27;;;;;;;8.75;2.90;;;35.40;50.20;;;;;;4953325;28;20198;-75
2022/07/01 12:21:59;;;;;;;4.90;2.40;;;35.50;50.00;;;;;;4953248;28;20692;-76
2022/07/01 12:24:28;;;;;;;5.43;2.80;;;35.50;50.00;;;;;;4954377;28;20696;-76
2022/07/01 12:27:04;;;;;;;5.30;2.60;;;35.70;50.20;;;;;;4954640;28;20202;-75
2022/07/01 12:29:49;;;;;;;5.20;3.13;;;35.80;49.90;;;;;;4953941;28;20659;-77
2022/07/01 12:32:22;;;;;;;6.47;2.60;;;35.80;49.70;;;;;;4966438;28;20880;-76
2022/07/01 12:34:54;;;;;;;4.28;2.50;;;36.00;49.60;;;;;;4963983;28;20314;-77
2022/07/01 12:37:31;;;;;;;4.30;2.78;;;36.00;49.40;;;;;;4960538;28;20193;-77
2022/07/01 12:40:04;;;;;;;5.25;2.97;;;36.10;48.90;;;;;;4959804;28;20257;-75
2022/07/01 12:42:37;;;;;;;6.80;3.08;;;36.10;49.00;;;;;;4961113;28;20706;-76
2022/07/01 12:45:07;;;;;;;4.80;2.83;;;36.20;49.00;;;;;;4964883;28;20189;-76
2022/07/01 12:47:38;;;;;;;3.00;2.70;;;36.30;49.00;;;;;;4963136;28;20576;-77
2022/07/01 12:50:11;;;;;;;4.47;2.92;;;36.40;48.00;;;;;;4963441;28;20202;-77
2022/07/01 12:52:42;;;;;;;4.20;2.80;;;36.50;47.70;;;;;;4960438;28;20607;-76
2022/07/01 12:55:17;;;;;;;5.75;2.60;;;36.50;47.80;;;;;;4960717;28;20284;-76
2022/07/01 12:57:48;;;;;;;5.90;2.85;;;36.60;48.00;;;;;;4963004;28;20197;-77
2022/07/01 13:00:18;;;;;;;7.15;2.70;;;36.60;47.50;;;;;;4963629;28;20193;-75
2022/07/01 13:02:47;;;;;;;5.55;2.58;;;36.70;47.70;;;;;;4960354;28;20198;-75
2022/07/01 13:05:15;;;;;;;5.55;2.47;;;36.80;47.50;;;;;;4963057;28;20256;-77
2022/07/01 13:07:45;;;;;;;3.70;2.42;;;36.90;47.50;;;;;;4961307;28;20194;-75
2022/07/01 13:10:14;;;;;;;6.00;2.50;;;37.00;47.80;;;;;;4964230;28;20596;-77
2022/07/01 13:12:44;;;;;;;4.50;2.92;;;37.20;47.10;;;;;;4965535;28;20753;-76
2022/07/01 13:15:13;;;;;;;5.70;3.08;;;37.40;46.00;;;;;;4963597;28;20285;-76
2022/07/01 13:17:41;;;;;;;5.32;2.92;;;37.40;45.30;;;;;;4959773;28;20201;-76
2022/07/01 13:20:10;;;;;;;5.35;2.97;;;37.60;45.80;;;;;;4960974;28;20278;-76
2022/07/01 13:22:38;;;;;;;4.68;2.67;;;37.80;45.50;;;;;;4959941;28;20204;-76